sensor_id;sensor_type;location;lat;lon;timestamp;temperature;humidity
5011;DHT22;2524;54.364;10.072;2022-11-15T00:00:25;7.20;99.90
5011;DHT22;2524;54.364;10.072;2022-11-15T00:02:55;7.30;99.90
5011;DHT22;2524;54.364;10.072;2022-11-15T00:05:21;7.20;99.90
5011;DHT22;2524;54.364;10.072;2022-11-15T00:07:46;7.30;99.90
5011;DHT22;2524;54.364;10.072;2022-11-15T00:10:12;7.30;99.90
5011;DHT22;2524;54.364;10.072;2022-11-15T00:12:38;7.20;99.90
5011;DHT22;2524;54.364;10.072;2022-11-15T00:15:04;7.20;99.90
5011;DHT22;2524;54.364;10.072;2022-11-15T00:17:30;7.20;99.90
5011;DHT22;2524;54.364;10.072;2022-11-15T00:19:55;7.20;99.90
5011;DHT22;2524;54.364;10.072;2022-11-15T00:22:21;7.20;99.90
5011;DHT22;2524;54.364;10.072;2022-11-15T00:24:47;7.20;99.90
5011;DHT22;2524;54.364;10.072;2022-11-15T00:27:12;7.20;99.90
5011;DHT22;2524;54.364;10.072;2022-11-15T00:29:38;7.20;99.90
5011;DHT22;2524;54.364;10.072;2022-11-15T00:32:11;7.20;99.90
5011;DHT22;2524;54.364;10.072;2022-11-15T00:34:37;7.10;99.90
5011;DHT22;2524;54.364;10.072;2022-11-15T00:37:02;7.10;99.90
5011;DHT22;2524;54.364;10.072;2022-11-15T00:39:28;7.10;99.90
5011;DHT22;2524;54.364;10.072;2022-11-15T00:41:53;7.10;99.90
5011;DHT22;2524;54.364;10.072;2022-11-15T00:44:19;7.10;99.90
5011;DHT22;2524;54.364;10.072;2022-11-15T00:46:45;7.10;99.90
5011;DHT22;2524;54.364;10.072;2022-11-15T00:49:10;7.10;99.90
5011;DHT22;2524;54.364;10.072;2022-11-15T00:51:36;7.10;99.90
5011;DHT22;2524;54.364;10.072;2022-11-15T00:54:01;7.10;99.90
5011;DHT22;2524;54.364;10.072;2022-11-15T00:56:27;7.10;99.90
5011;DHT22;2524;54.364;10.072;2022-11-15T00:58:53;7.10;99.90
5011;DHT22;2524;54.364;10.072;2022-11-15T01:01:19;7.10;99.90
5011;DHT22;2524;54.364;10.072;2022-11-15T01:03:45;7.10;99.90
5011;DHT22;2524;54.364;10.072;2022-11-15T01:06:10;7.10;99.90
5011;DHT22;2524;54.364;10.072;2022-11-15T01:08:38;7.00;99.90
5011;DHT22;2524;54.364;10.072;2022-11-15T01:11:06;7.00;99.90
5011;DHT22;2524;54.364;10.072;2022-11-15T01:13:34;7.00;99.90
5011;DHT22;2524;54.364;10.072;2022-11-15T01:16:15;7.00;99.90
5011;DHT22;2524;54.364;10.072;2022-11-15T01:18:42;7.00;99.90
5011;DHT22;2524;54.364;10.072;2022-11-15T01:21:09;7.00;99.90
5011;DHT22;2524;54.364;10.072;2022-11-15T01:23:35;7.00;99.90
5011;DHT22;2524;54.364;10.072;2022-11-15T01:26:03;7.00;99.90
5011;DHT22;2524;54.364;10.072;2022-11-15T01:28:33;7.00;99.90
5011;DHT22;2524;54.364;10.072;2022-11-15T01:31:00;7.00;99.90
5011;DHT22;2524;54.364;10.072;2022-11-15T01:33:29;7.00;99.90
5011;DHT22;2524;54.364;10.072;2022-11-15T01:35:55;7.00;99.90
5011;DHT22;2524;54.364;10.072;2022-11-15T01:38:21;7.00;99.90
5011;DHT22;2524;54.364;10.072;2022-11-15T01:40:47;7.00;99.90
5011;DHT22;2524;54.364;10.072;2022-11-15T01:43:33;7.00;99.90
5011;DHT22;2524;54.364;10.072;2022-11-15T01:46:04;7.00;99.90
5011;DHT22;2524;54.364;10.072;2022-11-15T01:48:34;7.00;99.90
5011;DHT22;2524;54.364;10.072;2022-11-15T01:51:01;6.90;99.90
5011;DHT22;2524;54.364;10.072;2022-11-15T01:53:29;6.90;99.90
5011;DHT22;2524;54.364;10.072;2022-11-15T01:55:55;6.90;99.90
5011;DHT22;2524;54.364;10.072;2022-11-15T01:58:21;6.90;99.90
5011;DHT22;2524;54.364;10.072;2022-11-15T02:00:47;7.00;99.90
5011;DHT22;2524;54.364;10.072;2022-11-15T02:03:15;7.00;99.90
5011;DHT22;2524;54.364;10.072;2022-11-15T02:05:41;6.90;99.90
5011;DHT22;2524;54.364;10.072;2022-11-15T02:08:08;6.90;99.90
5011;DHT22;2524;54.364;10.072;2022-11-15T02:10:47;6.90;99.90
5011;DHT22;2524;54.364;10.072;2022-11-15T02:13:14;6.90;99.90
5011;DHT22;2524;54.364;10.072;2022-11-15T02:16:01;6.90;99.90
5011;DHT22;2524;54.364;10.072;2022-11-15T02:18:38;7.00;99.90
5011;DHT22;2524;54.364;10.072;2022-11-15T02:21:37;7.00;99.90
5011;DHT22;2524;54.364;10.072;2022-11-15T02:32:42;7.00;99.90
5011;DHT22;2524;54.364;10.072;2022-11-15T02:37:59;7.00;99.90
5011;DHT22;2524;54.364;10.072;2022-11-15T02:43:18;7.00;99.90
5011;DHT22;2524;54.364;10.072;2022-11-15T02:46:22;7.00;99.90
5011;DHT22;2524;54.364;10.072;2022-11-15T02:49:10;7.00;99.90
5011;DHT22;2524;54.364;10.072;2022-11-15T02:51:36;7.00;99.90
5011;DHT22;2524;54.364;10.072;2022-11-15T02:54:02;7.00;99.90
5011;DHT22;2524;54.364;10.072;2022-11-15T02:56:27;7.00;99.90
5011;DHT22;2524;54.364;10.072;2022-11-15T03:04:18;7.00;99.90
5011;DHT22;2524;54.364;10.072;2022-11-15T03:09:39;7.00;99.90
5011;DHT22;2524;54.364;10.072;2022-11-15T03:12:25;7.00;99.90
5011;DHT22;2524;54.364;10.072;2022-11-15T03:15:05;6.90;99.90
5011;DHT22;2524;54.364;10.072;2022-11-15T03:17:46;6.90;99.90
5011;DHT22;2524;54.364;10.072;2022-11-15T03:20:16;6.90;99.90
5011;DHT22;2524;54.364;10.072;2022-11-15T03:22:44;7.00;99.90
5011;DHT22;2524;54.364;10.072;2022-11-15T03:25:13;6.90;99.90
5011;DHT22;2524;54.364;10.072;2022-11-15T03:27:42;6.90;99.90
5011;DHT22;2524;54.364;10.072;2022-11-15T03:30:10;6.90;99.90
5011;DHT22;2524;54.364;10.072;2022-11-15T03:32:56;6.80;99.90
5011;DHT22;2524;54.364;10.072;2022-11-15T03:35:29;6.80;99.90
5011;DHT22;2524;54.364;10.072;2022-11-15T03:38:16;6.80;99.90
5011;DHT22;2524;54.364;10.072;2022-11-15T03:43:40;6.80;99.90
5011;DHT22;2524;54.364;10.072;2022-11-15T03:46:13;6.80;99.90
5011;DHT22;2524;54.364;10.072;2022-11-15T03:49:09;6.80;99.90
5011;DHT22;2524;54.364;10.072;2022-11-15T03:51:37;6.80;99.90
5011;DHT22;2524;54.364;10.072;2022-11-15T03:54:04;6.80;99.90
5011;DHT22;2524;54.364;10.072;2022-11-15T03:56:29;6.80;99.90
5011;DHT22;2524;54.364;10.072;2022-11-15T03:58:55;6.80;99.90
5011;DHT22;2524;54.364;10.072;2022-11-15T04:01:21;6.70;99.90
5011;DHT22;2524;54.364;10.072;2022-11-15T04:03:46;6.80;99.90
5011;DHT22;2524;54.364;10.072;2022-11-15T04:06:12;6.70;99.90
5011;DHT22;2524;54.364;10.072;2022-11-15T04:08:37;6.70;99.90
5011;DHT22;2524;54.364;10.072;2022-11-15T04:11:03;6.70;99.90
5011;DHT22;2524;54.364;10.072;2022-11-15T04:13:28;6.70;99.90
5011;DHT22;2524;54.364;10.072;2022-11-15T04:15:54;6.70;99.90
5011;DHT22;2524;54.364;10.072;2022-11-15T04:18:20;6.70;99.90
5011;DHT22;2524;54.364;10.072;2022-11-15T04:20:45;6.70;99.90
5011;DHT22;2524;54.364;10.072;2022-11-15T04:23:29;6.80;99.90
5011;DHT22;2524;54.364;10.072;2022-11-15T04:26:30;6.70;99.90
5011;DHT22;2524;54.364;10.072;2022-11-15T04:28:56;6.70;99.90
5011;DHT22;2524;54.364;10.072;2022-11-15T04:31:40;6.70;99.90
5011;DHT22;2524;54.364;10.072;2022-11-15T04:34:05;6.70;99.90
5011;DHT22;2524;54.364;10.072;2022-11-15T04:36:31;6.70;99.90
5011;DHT22;2524;54.364;10.072;2022-11-15T04:39:15;6.60;99.90
5011;DHT22;2524;54.364;10.072;2022-11-15T04:41:41;6.60;99.90
5011;DHT22;2524;54.364;10.072;2022-11-15T04:44:06;6.60;99.90
5011;DHT22;2524;54.364;10.072;2022-11-15T04:46:32;6.60;99.90
5011;DHT22;2524;54.364;10.072;2022-11-15T04:48:58;6.60;99.90
5011;DHT22;2524;54.364;10.072;2022-11-15T04:51:23;6.60;99.90
5011;DHT22;2524;54.364;10.072;2022-11-15T04:53:49;6.60;99.90
5011;DHT22;2524;54.364;10.072;2022-11-15T04:56:15;6.60;99.90
5011;DHT22;2524;54.364;10.072;2022-11-15T04:58:40;6.60;99.90
5011;DHT22;2524;54.364;10.072;2022-11-15T05:01:13;6.60;99.90
5011;DHT22;2524;54.364;10.072;2022-11-15T05:03:42;6.60;99.90
5011;DHT22;2524;54.364;10.072;2022-11-15T05:06:26;6.60;99.90
5011;DHT22;2524;54.364;10.072;2022-11-15T05:08:52;6.60;99.90
5011;DHT22;2524;54.364;10.072;2022-11-15T05:11:17;6.60;99.90
5011;DHT22;2524;54.364;10.072;2022-11-15T05:13:43;6.60;99.90
5011;DHT22;2524;54.364;10.072;2022-11-15T05:16:09;6.60;99.90
5011;DHT22;2524;54.364;10.072;2022-11-15T05:18:34;6.60;99.90
5011;DHT22;2524;54.364;10.072;2022-11-15T05:21:08;6.60;99.90
5011;DHT22;2524;54.364;10.072;2022-11-15T05:23:34;6.60;99.90
5011;DHT22;2524;54.364;10.072;2022-11-15T05:26:00;6.60;99.90
5011;DHT22;2524;54.364;10.072;2022-11-15T05:28:26;6.50;99.90
5011;DHT22;2524;54.364;10.072;2022-11-15T05:30:51;6.50;99.90
5011;DHT22;2524;54.364;10.072;2022-11-15T05:33:17;6.50;99.90
5011;DHT22;2524;54.364;10.072;2022-11-15T05:38:12;6.50;99.90
5011;DHT22;2524;54.364;10.072;2022-11-15T05:40:38;6.50;99.90
5011;DHT22;2524;54.364;10.072;2022-11-15T05:43:04;6.50;99.90
5011;DHT22;2524;54.364;10.072;2022-11-15T05:45:31;6.40;99.90
5011;DHT22;2524;54.364;10.072;2022-11-15T05:47:59;6.40;99.90
5011;DHT22;2524;54.364;10.072;2022-11-15T05:50:26;6.40;99.90
5011;DHT22;2524;54.364;10.072;2022-11-15T05:52:54;6.40;99.90
5011;DHT22;2524;54.364;10.072;2022-11-15T05:55:20;6.40;99.90
5011;DHT22;2524;54.364;10.072;2022-11-15T05:57:45;6.40;99.90
5011;DHT22;2524;54.364;10.072;2022-11-15T06:00:11;6.40;99.90
5011;DHT22;2524;54.364;10.072;2022-11-15T06:02:37;6.50;99.90
5011;DHT22;2524;54.364;10.072;2022-11-15T06:05:03;6.50;99.90
5011;DHT22;2524;54.364;10.072;2022-11-15T06:07:29;6.50;99.90
5011;DHT22;2524;54.364;10.072;2022-11-15T06:09:55;6.50;99.90
5011;DHT22;2524;54.364;10.072;2022-11-15T06:12:20;6.60;99.90
5011;DHT22;2524;54.364;10.072;2022-11-15T06:14:46;6.60;99.90
5011;DHT22;2524;54.364;10.072;2022-11-15T06:17:11;6.60;99.90
5011;DHT22;2524;54.364;10.072;2022-11-15T06:19:37;6.60;99.90
5011;DHT22;2524;54.364;10.072;2022-11-15T06:22:03;6.60;99.90
5011;DHT22;2524;54.364;10.072;2022-11-15T06:24:28;6.60;99.90
5011;DHT22;2524;54.364;10.072;2022-11-15T06:26:54;6.70;99.90
5011;DHT22;2524;54.364;10.072;2022-11-15T06:29:19;6.70;99.90
5011;DHT22;2524;54.364;10.072;2022-11-15T06:31:45;6.70;99.90
5011;DHT22;2524;54.364;10.072;2022-11-15T06:34:10;6.80;99.90
5011;DHT22;2524;54.364;10.072;2022-11-15T06:36:36;6.80;99.90
5011;DHT22;2524;54.364;10.072;2022-11-15T06:39:05;6.80;99.90
5011;DHT22;2524;54.364;10.072;2022-11-15T06:41:34;6.80;99.90
5011;DHT22;2524;54.364;10.072;2022-11-15T06:44:00;6.80;99.90
5011;DHT22;2524;54.364;10.072;2022-11-15T06:46:25;6.80;99.90
5011;DHT22;2524;54.364;10.072;2022-11-15T06:48:52;6.90;99.90
5011;DHT22;2524;54.364;10.072;2022-11-15T06:51:18;6.90;99.90
5011;DHT22;2524;54.364;10.072;2022-11-15T06:53:43;6.90;99.90
5011;DHT22;2524;54.364;10.072;2022-11-15T06:56:09;6.90;99.90
5011;DHT22;2524;54.364;10.072;2022-11-15T06:58:35;6.90;99.90
5011;DHT22;2524;54.364;10.072;2022-11-15T07:01:07;6.90;99.90
5011;DHT22;2524;54.364;10.072;2022-11-15T07:03:38;6.90;99.90
5011;DHT22;2524;54.364;10.072;2022-11-15T07:06:04;6.90;99.90
5011;DHT22;2524;54.364;10.072;2022-11-15T07:08:30;6.90;99.90
5011;DHT22;2524;54.364;10.072;2022-11-15T07:11:03;7.00;99.90
5011;DHT22;2524;54.364;10.072;2022-11-15T07:13:31;7.00;99.90
5011;DHT22;2524;54.364;10.072;2022-11-15T07:16:01;7.00;99.90
5011;DHT22;2524;54.364;10.072;2022-11-15T07:18:27;6.90;99.90
5011;DHT22;2524;54.364;10.072;2022-11-15T07:20:52;7.00;99.90
5011;DHT22;2524;54.364;10.072;2022-11-15T07:23:18;7.00;99.90
5011;DHT22;2524;54.364;10.072;2022-11-15T07:25:44;7.00;99.90
5011;DHT22;2524;54.364;10.072;2022-11-15T07:28:09;7.00;99.90
5011;DHT22;2524;54.364;10.072;2022-11-15T07:30:35;7.00;99.90
5011;DHT22;2524;54.364;10.072;2022-11-15T07:33:01;7.00;99.90
5011;DHT22;2524;54.364;10.072;2022-11-15T07:35:27;7.00;99.90
5011;DHT22;2524;54.364;10.072;2022-11-15T07:38:03;7.00;99.90
5011;DHT22;2524;54.364;10.072;2022-11-15T07:40:30;7.10;99.90
5011;DHT22;2524;54.364;10.072;2022-11-15T07:43:05;7.10;99.90
5011;DHT22;2524;54.364;10.072;2022-11-15T07:45:31;7.10;99.90
5011;DHT22;2524;54.364;10.072;2022-11-15T07:47:58;7.10;99.90
5011;DHT22;2524;54.364;10.072;2022-11-15T07:50:25;7.10;99.90
5011;DHT22;2524;54.364;10.072;2022-11-15T07:52:58;7.20;99.90
5011;DHT22;2524;54.364;10.072;2022-11-15T07:55:25;7.20;99.90
5011;DHT22;2524;54.364;10.072;2022-11-15T07:57:52;7.20;99.90
5011;DHT22;2524;54.364;10.072;2022-11-15T08:00:18;7.20;99.90
5011;DHT22;2524;54.364;10.072;2022-11-15T08:02:44;7.20;99.90
5011;DHT22;2524;54.364;10.072;2022-11-15T08:05:10;7.30;99.90
5011;DHT22;2524;54.364;10.072;2022-11-15T08:07:36;7.30;99.90
5011;DHT22;2524;54.364;10.072;2022-11-15T08:10:04;7.30;99.90
5011;DHT22;2524;54.364;10.072;2022-11-15T08:12:31;7.30;99.90
5011;DHT22;2524;54.364;10.072;2022-11-15T08:14:56;7.30;99.90
5011;DHT22;2524;54.364;10.072;2022-11-15T08:17:23;7.30;99.90
5011;DHT22;2524;54.364;10.072;2022-11-15T08:19:49;7.40;99.90
5011;DHT22;2524;54.364;10.072;2022-11-15T08:22:14;7.40;99.90
5011;DHT22;2524;54.364;10.072;2022-11-15T08:24:40;7.40;99.90
5011;DHT22;2524;54.364;10.072;2022-11-15T08:27:06;7.40;99.90
5011;DHT22;2524;54.364;10.072;2022-11-15T08:29:43;7.40;99.90
5011;DHT22;2524;54.364;10.072;2022-11-15T08:32:09;7.50;99.90
5011;DHT22;2524;54.364;10.072;2022-11-15T08:34:35;7.50;99.90
5011;DHT22;2524;54.364;10.072;2022-11-15T08:37:00;7.50;99.90
5011;DHT22;2524;54.364;10.072;2022-11-15T08:39:26;7.50;99.90
5011;DHT22;2524;54.364;10.072;2022-11-15T08:41:51;7.50;99.90
5011;DHT22;2524;54.364;10.072;2022-11-15T08:44:17;7.60;99.90
5011;DHT22;2524;54.364;10.072;2022-11-15T08:46:45;7.60;99.90
5011;DHT22;2524;54.364;10.072;2022-11-15T08:49:11;7.60;99.90
5011;DHT22;2524;54.364;10.072;2022-11-15T08:51:36;7.60;99.90
5011;DHT22;2524;54.364;10.072;2022-11-15T08:54:02;7.60;99.90
5011;DHT22;2524;54.364;10.072;2022-11-15T08:56:28;7.60;99.90
5011;DHT22;2524;54.364;10.072;2022-11-15T08:58:53;7.70;99.90
5011;DHT22;2524;54.364;10.072;2022-11-15T09:01:20;7.70;99.90
5011;DHT22;2524;54.364;10.072;2022-11-15T09:03:46;7.70;99.90
5011;DHT22;2524;54.364;10.072;2022-11-15T09:06:12;7.70;99.90
5011;DHT22;2524;54.364;10.072;2022-11-15T09:08:38;7.80;99.90
5011;DHT22;2524;54.364;10.072;2022-11-15T09:11:05;7.80;99.90
5011;DHT22;2524;54.364;10.072;2022-11-15T09:13:31;7.80;99.90
5011;DHT22;2524;54.364;10.072;2022-11-15T09:16:01;7.80;99.90
5011;DHT22;2524;54.364;10.072;2022-11-15T09:18:27;7.90;99.90
5011;DHT22;2524;54.364;10.072;2022-11-15T09:20:58;7.90;99.90
5011;DHT22;2524;54.364;10.072;2022-11-15T09:23:25;7.90;99.90
5011;DHT22;2524;54.364;10.072;2022-11-15T09:25:51;8.00;99.90
5011;DHT22;2524;54.364;10.072;2022-11-15T09:28:17;8.00;99.90
5011;DHT22;2524;54.364;10.072;2022-11-15T09:30:43;8.00;99.90
5011;DHT22;2524;54.364;10.072;2022-11-15T09:33:10;8.00;99.90
5011;DHT22;2524;54.364;10.072;2022-11-15T09:35:36;8.10;99.90
5011;DHT22;2524;54.364;10.072;2022-11-15T09:38:02;8.10;99.90
5011;DHT22;2524;54.364;10.072;2022-11-15T09:40:30;8.10;99.90
5011;DHT22;2524;54.364;10.072;2022-11-15T09:43:09;8.10;99.90
5011;DHT22;2524;54.364;10.072;2022-11-15T09:48:55;8.10;99.90
5011;DHT22;2524;54.364;10.072;2022-11-15T09:51:44;8.20;99.90
5011;DHT22;2524;54.364;10.072;2022-11-15T09:54:38;8.20;99.90
5011;DHT22;2524;54.364;10.072;2022-11-15T09:57:15;8.20;99.90
5011;DHT22;2524;54.364;10.072;2022-11-15T10:00:10;8.20;99.90
5011;DHT22;2524;54.364;10.072;2022-11-15T10:05:13;8.20;99.90
5011;DHT22;2524;54.364;10.072;2022-11-15T10:12:45;8.40;99.90
5011;DHT22;2524;54.364;10.072;2022-11-15T10:15:15;8.30;99.90
5011;DHT22;2524;54.364;10.072;2022-11-15T10:21:22;8.30;99.90
5011;DHT22;2524;54.364;10.072;2022-11-15T10:23:50;8.40;99.90
5011;DHT22;2524;54.364;10.072;2022-11-15T10:26:16;8.40;99.90
5011;DHT22;2524;54.364;10.072;2022-11-15T10:28:42;8.40;99.90
5011;DHT22;2524;54.364;10.072;2022-11-15T10:31:24;8.40;99.90
5011;DHT22;2524;54.364;10.072;2022-11-15T10:33:51;8.50;99.90
5011;DHT22;2524;54.364;10.072;2022-11-15T10:36:23;8.50;99.90
5011;DHT22;2524;54.364;10.072;2022-11-15T10:46:34;8.50;99.90
5011;DHT22;2524;54.364;10.072;2022-11-15T10:49:15;8.50;99.90
5011;DHT22;2524;54.364;10.072;2022-11-15T10:54:39;8.60;99.90
5011;DHT22;2524;54.364;10.072;2022-11-15T10:57:10;8.60;99.90
5011;DHT22;2524;54.364;10.072;2022-11-15T10:59:37;8.60;99.90
5011;DHT22;2524;54.364;10.072;2022-11-15T11:04:52;8.60;99.90
5011;DHT22;2524;54.364;10.072;2022-11-15T11:07:24;8.60;99.90
5011;DHT22;2524;54.364;10.072;2022-11-15T11:12:33;8.70;99.90
5011;DHT22;2524;54.364;10.072;2022-11-15T11:15:09;8.70;99.90
5011;DHT22;2524;54.364;10.072;2022-11-15T11:17:51;8.70;99.90
5011;DHT22;2524;54.364;10.072;2022-11-15T11:34:38;8.70;99.90
5011;DHT22;2524;54.364;10.072;2022-11-15T11:45:43;8.80;99.90
5011;DHT22;2524;54.364;10.072;2022-11-15T11:51:32;8.90;99.90
5011;DHT22;2524;54.364;10.072;2022-11-15T11:54:18;8.90;99.90
5011;DHT22;2524;54.364;10.072;2022-11-15T11:56:45;8.90;99.90
5011;DHT22;2524;54.364;10.072;2022-11-15T12:02:14;8.90;99.90
5011;DHT22;2524;54.364;10.072;2022-11-15T12:04:47;8.90;99.90
5011;DHT22;2524;54.364;10.072;2022-11-15T12:07:22;8.90;99.90
5011;DHT22;2524;54.364;10.072;2022-11-15T12:09:59;9.00;99.90
5011;DHT22;2524;54.364;10.072;2022-11-15T12:12:52;9.00;99.90
5011;DHT22;2524;54.364;10.072;2022-11-15T12:15:26;9.00;99.90
5011;DHT22;2524;54.364;10.072;2022-11-15T12:17:55;9.10;99.90
5011;DHT22;2524;54.364;10.072;2022-11-15T12:20:27;9.00;99.90
5011;DHT22;2524;54.364;10.072;2022-11-15T12:31:11;9.10;99.90
5011;DHT22;2524;54.364;10.072;2022-11-15T12:33:43;9.20;99.90
5011;DHT22;2524;54.364;10.072;2022-11-15T12:36:39;9.20;99.90
5011;DHT22;2524;54.364;10.072;2022-11-15T12:39:10;9.20;99.90
5011;DHT22;2524;54.364;10.072;2022-11-15T12:41:41;9.30;99.90
5011;DHT22;2524;54.364;10.072;2022-11-15T12:44:12;9.30;99.90
5011;DHT22;2524;54.364;10.072;2022-11-15T12:59:54;9.30;99.90
5011;DHT22;2524;54.364;10.072;2022-11-15T13:02:25;9.40;99.90
5011;DHT22;2524;54.364;10.072;2022-11-15T13:04:54;9.30;99.90
5011;DHT22;2524;54.364;10.072;2022-11-15T13:13:01;9.40;99.90
5011;DHT22;2524;54.364;10.072;2022-11-15T13:17:58;9.40;99.90
5011;DHT22;2524;54.364;10.072;2022-11-15T13:20:30;9.40;99.90
5011;DHT22;2524;54.364;10.072;2022-11-15T13:23:11;9.40;99.90
5011;DHT22;2524;54.364;10.072;2022-11-15T13:31:03;9.40;99.90
5011;DHT22;2524;54.364;10.072;2022-11-15T13:33:37;9.40;99.90
5011;DHT22;2524;54.364;10.072;2022-11-15T13:36:19;9.40;99.90
5011;DHT22;2524;54.364;10.072;2022-11-15T13:38:55;9.40;99.90
5011;DHT22;2524;54.364;10.072;2022-11-15T13:41:24;9.40;99.90
5011;DHT22;2524;54.364;10.072;2022-11-15T13:43:51;9.40;99.90
5011;DHT22;2524;54.364;10.072;2022-11-15T13:46:22;9.40;99.90
5011;DHT22;2524;54.364;10.072;2022-11-15T13:48:58;9.50;99.90
5011;DHT22;2524;54.364;10.072;2022-11-15T13:51:43;9.50;99.90
5011;DHT22;2524;54.364;10.072;2022-11-15T13:56:42;9.50;99.90
5011;DHT22;2524;54.364;10.072;2022-11-15T13:59:27;9.50;99.90
5011;DHT22;2524;54.364;10.072;2022-11-15T14:01:55;9.50;99.90
5011;DHT22;2524;54.364;10.072;2022-11-15T14:04:23;9.50;99.90
5011;DHT22;2524;54.364;10.072;2022-11-15T14:06:53;9.60;99.90
5011;DHT22;2524;54.364;10.072;2022-11-15T14:12:31;9.60;99.90
5011;DHT22;2524;54.364;10.072;2022-11-15T14:14:58;9.60;99.90
5011;DHT22;2524;54.364;10.072;2022-11-15T14:19:57;9.60;99.90
5011;DHT22;2524;54.364;10.072;2022-11-15T14:22:28;9.60;99.90
5011;DHT22;2524;54.364;10.072;2022-11-15T14:25:14;9.60;99.90
5011;DHT22;2524;54.364;10.072;2022-11-15T14:27:42;9.70;99.90
5011;DHT22;2524;54.364;10.072;2022-11-15T14:30:14;9.70;99.90
5011;DHT22;2524;54.364;10.072;2022-11-15T14:32:48;9.70;99.90
5011;DHT22;2524;54.364;10.072;2022-11-15T14:35:20;9.70;99.90
5011;DHT22;2524;54.364;10.072;2022-11-15T14:37:46;9.70;99.90
5011;DHT22;2524;54.364;10.072;2022-11-15T14:40:15;9.80;99.90
5011;DHT22;2524;54.364;10.072;2022-11-15T14:42:43;9.80;99.90
5011;DHT22;2524;54.364;10.072;2022-11-15T14:45:13;9.80;99.90
5011;DHT22;2524;54.364;10.072;2022-11-15T14:47:39;9.80;99.90
5011;DHT22;2524;54.364;10.072;2022-11-15T14:50:05;9.80;99.90
5011;DHT22;2524;54.364;10.072;2022-11-15T14:52:32;9.80;99.90
5011;DHT22;2524;54.364;10.072;2022-11-15T14:55:10;9.80;99.90
5011;DHT22;2524;54.364;10.072;2022-11-15T14:57:38;9.80;99.90
5011;DHT22;2524;54.364;10.072;2022-11-15T15:00:04;9.80;99.90
5011;DHT22;2524;54.364;10.072;2022-11-15T15:02:30;9.80;99.90
5011;DHT22;2524;54.364;10.072;2022-11-15T15:04:56;9.90;99.90
5011;DHT22;2524;54.364;10.072;2022-11-15T15:07:26;9.90;99.90
5011;DHT22;2524;54.364;10.072;2022-11-15T15:09:51;9.90;99.90
5011;DHT22;2524;54.364;10.072;2022-11-15T15:12:20;9.90;99.90
5011;DHT22;2524;54.364;10.072;2022-11-15T15:14:47;9.90;99.90
5011;DHT22;2524;54.364;10.072;2022-11-15T15:17:13;9.90;99.90
5011;DHT22;2524;54.364;10.072;2022-11-15T15:19:39;9.90;99.90
5011;DHT22;2524;54.364;10.072;2022-11-15T15:22:05;9.80;99.90
5011;DHT22;2524;54.364;10.072;2022-11-15T15:24:31;9.90;99.90
5011;DHT22;2524;54.364;10.072;2022-11-15T15:26:56;9.80;99.90
5011;DHT22;2524;54.364;10.072;2022-11-15T15:29:22;9.80;99.90
5011;DHT22;2524;54.364;10.072;2022-11-15T15:31:47;9.80;99.90
5011;DHT22;2524;54.364;10.072;2022-11-15T15:34:13;9.80;99.90
5011;DHT22;2524;54.364;10.072;2022-11-15T15:36:39;9.80;99.90
5011;DHT22;2524;54.364;10.072;2022-11-15T15:39:04;9.80;99.90
5011;DHT22;2524;54.364;10.072;2022-11-15T15:41:30;9.80;99.90
5011;DHT22;2524;54.364;10.072;2022-11-15T15:43:55;9.80;99.90
5011;DHT22;2524;54.364;10.072;2022-11-15T15:46:21;9.70;99.90
5011;DHT22;2524;54.364;10.072;2022-11-15T15:48:47;9.70;99.90
5011;DHT22;2524;54.364;10.072;2022-11-15T15:51:12;9.70;99.90
5011;DHT22;2524;54.364;10.072;2022-11-15T15:53:39;9.70;99.90
5011;DHT22;2524;54.364;10.072;2022-11-15T15:56:05;9.70;99.90
5011;DHT22;2524;54.364;10.072;2022-11-15T15:58:33;9.70;99.90
5011;DHT22;2524;54.364;10.072;2022-11-15T16:00:59;9.60;99.90
5011;DHT22;2524;54.364;10.072;2022-11-15T16:03:25;9.60;99.90
5011;DHT22;2524;54.364;10.072;2022-11-15T16:05:53;9.60;99.90
5011;DHT22;2524;54.364;10.072;2022-11-15T16:08:20;9.60;99.90
5011;DHT22;2524;54.364;10.072;2022-11-15T16:10:47;9.60;99.90
5011;DHT22;2524;54.364;10.072;2022-11-15T16:13:13;9.60;99.90
5011;DHT22;2524;54.364;10.072;2022-11-15T16:15:42;9.50;99.90
5011;DHT22;2524;54.364;10.072;2022-11-15T16:18:16;9.50;99.90
5011;DHT22;2524;54.364;10.072;2022-11-15T16:20:44;9.50;99.90
5011;DHT22;2524;54.364;10.072;2022-11-15T16:23:14;9.50;99.90
5011;DHT22;2524;54.364;10.072;2022-11-15T16:25:50;9.50;99.90
5011;DHT22;2524;54.364;10.072;2022-11-15T16:30:59;9.50;99.90
5011;DHT22;2524;54.364;10.072;2022-11-15T16:33:25;9.50;99.90
5011;DHT22;2524;54.364;10.072;2022-11-15T16:35:51;9.50;99.90
5011;DHT22;2524;54.364;10.072;2022-11-15T16:38:17;9.50;99.90
5011;DHT22;2524;54.364;10.072;2022-11-15T16:40:43;9.50;99.90
5011;DHT22;2524;54.364;10.072;2022-11-15T16:43:09;9.50;99.90
5011;DHT22;2524;54.364;10.072;2022-11-15T16:45:35;9.50;99.90
5011;DHT22;2524;54.364;10.072;2022-11-15T16:48:01;9.50;99.90
5011;DHT22;2524;54.364;10.072;2022-11-15T16:50:29;9.50;99.90
5011;DHT22;2524;54.364;10.072;2022-11-15T16:52:57;9.50;99.90
5011;DHT22;2524;54.364;10.072;2022-11-15T16:55:25;9.60;99.90
5011;DHT22;2524;54.364;10.072;2022-11-15T16:57:51;9.50;99.90
5011;DHT22;2524;54.364;10.072;2022-11-15T17:00:18;9.60;99.90
5011;DHT22;2524;54.364;10.072;2022-11-15T17:02:45;9.70;99.90
5011;DHT22;2524;54.364;10.072;2022-11-15T17:05:12;9.60;99.90
5011;DHT22;2524;54.364;10.072;2022-11-15T17:07:39;9.60;99.90
5011;DHT22;2524;54.364;10.072;2022-11-15T17:10:06;9.60;99.90
5011;DHT22;2524;54.364;10.072;2022-11-15T17:12:33;9.60;99.90
5011;DHT22;2524;54.364;10.072;2022-11-15T17:14:58;9.60;99.90
5011;DHT22;2524;54.364;10.072;2022-11-15T17:17:24;9.60;99.90
5011;DHT22;2524;54.364;10.072;2022-11-15T17:19:51;9.60;99.90
5011;DHT22;2524;54.364;10.072;2022-11-15T17:22:18;9.60;99.90
5011;DHT22;2524;54.364;10.072;2022-11-15T17:24:43;9.50;99.90
5011;DHT22;2524;54.364;10.072;2022-11-15T17:27:09;9.50;99.90
5011;DHT22;2524;54.364;10.072;2022-11-15T17:29:35;9.50;99.90
5011;DHT22;2524;54.364;10.072;2022-11-15T17:32:00;9.60;99.90
5011;DHT22;2524;54.364;10.072;2022-11-15T17:34:26;9.50;99.90
5011;DHT22;2524;54.364;10.072;2022-11-15T17:36:53;9.50;99.90
5011;DHT22;2524;54.364;10.072;2022-11-15T17:39:19;9.50;99.90
5011;DHT22;2524;54.364;10.072;2022-11-15T17:41:46;9.50;99.90
5011;DHT22;2524;54.364;10.072;2022-11-15T17:44:11;9.50;99.90
5011;DHT22;2524;54.364;10.072;2022-11-15T17:46:37;9.50;99.90
5011;DHT22;2524;54.364;10.072;2022-11-15T17:49:05;9.60;99.90
5011;DHT22;2524;54.364;10.072;2022-11-15T17:51:30;9.50;99.90
5011;DHT22;2524;54.364;10.072;2022-11-15T17:53:56;9.50;99.90
5011;DHT22;2524;54.364;10.072;2022-11-15T17:56:23;9.50;99.90
5011;DHT22;2524;54.364;10.072;2022-11-15T17:58:54;9.50;99.90
5011;DHT22;2524;54.364;10.072;2022-11-15T18:01:25;9.50;99.90
5011;DHT22;2524;54.364;10.072;2022-11-15T18:03:52;9.50;99.90
5011;DHT22;2524;54.364;10.072;2022-11-15T18:06:19;9.50;99.90
5011;DHT22;2524;54.364;10.072;2022-11-15T18:08:46;9.50;99.90
5011;DHT22;2524;54.364;10.072;2022-11-15T18:11:21;9.50;99.90
5011;DHT22;2524;54.364;10.072;2022-11-15T18:13:49;9.50;99.90
5011;DHT22;2524;54.364;10.072;2022-11-15T18:16:17;9.50;99.90
5011;DHT22;2524;54.364;10.072;2022-11-15T18:18:43;9.50;99.90
5011;DHT22;2524;54.364;10.072;2022-11-15T18:23:35;9.60;99.90
5011;DHT22;2524;54.364;10.072;2022-11-15T18:26:02;9.50;99.90
5011;DHT22;2524;54.364;10.072;2022-11-15T18:28:37;9.50;99.90